Time;durP1;ratioP1;P1;durP2;ratioP2;P2;SDS_P1;SDS_P2;PMS_P1;PMS_P2;Temp;Humidity;BMP_temperature;BMP_pressure;BME280_temperature;BME280_humidity;BME280_pressure;Samples;Min_cycle;Max_cycle;Signal;HPM_P1;HPM_P2
2021/05/03 00:00:16;;;;;;;5.53;4.10;;;5.30;92.90;;;;;;5136556;27;20032;-72
2021/05/03 00:02:42;;;;;;;5.70;4.22;;;5.30;92.80;;;;;;5136264;27;20429;-73
2021/05/03 00:05:18;;;;;;;8.93;4.63;;;5.30;92.90;;;;;;5135791;27;20114;-73
2021/05/03 00:07:44;;;;;;;6.55;4.40;;;5.30;92.90;;;;;;5136189;27;20039;-73
2021/05/03 00:10:10;;;;;;;8.52;4.43;;;5.20;93.10;;;;;;5136192;27;20031;-73
2021/05/03 00:12:36;;;;;;;7.78;4.90;;;5.10;93.10;;;;;;5136325;27;20039;-72
2021/05/03 00:15:02;;;;;;;7.20;4.15;;;5.10;93.30;;;;;;5135949;27;20080;-73
2021/05/03 00:17:28;;;;;;;7.60;4.20;;;5.10;93.60;;;;;;5135739;27;20482;-73
2021/05/03 00:19:53;;;;;;;7.32;4.47;;;5.10;93.60;;;;;;5136055;27;20110;-72
2021/05/03 00:22:19;;;;;;;8.27;4.88;;;5.10;93.50;;;;;;5135739;27;20039;-73
2021/05/03 00:24:45;;;;;;;8.70;4.60;;;5.10;93.40;;;;;;5135517;27;20044;-73
2021/05/03 00:27:11;;;;;;;8.85;4.97;;;5.20;93.40;;;;;;5135623;27;20091;-73
2021/05/03 00:29:36;;;;;;;6.55;4.53;;;5.20;93.40;;;;;;5136094;27;20084;-72
2021/05/03 00:32:03;;;;;;;6.22;4.65;;;5.20;93.60;;;;;;5135562;27;20110;-73
2021/05/03 00:34:28;;;;;;;5.55;4.07;;;5.20;93.50;;;;;;5135296;27;20078;-73
2021/05/03 00:36:55;;;;;;;7.30;4.55;;;5.20;93.60;;;;;;5135479;27;20039;-73
2021/05/03 00:39:20;;;;;;;8.35;4.82;;;5.20;93.80;;;;;;5135607;27;20038;-73
2021/05/03 00:41:46;;;;;;;9.23;4.78;;;5.20;93.60;;;;;;5135752;27;20039;-73
2021/05/03 00:44:12;;;;;;;6.22;4.43;;;5.10;93.70;;;;;;5136051;27;20042;-73
2021/05/03 00:46:39;;;;;;;6.43;4.38;;;5.10;93.70;;;;;;5135332;27;20137;-73
2021/05/03 00:49:06;;;;;;;8.32;4.57;;;5.00;93.80;;;;;;5136004;27;20114;-73
2021/05/03 00:51:34;;;;;;;6.95;5.00;;;5.00;93.90;;;;;;5134006;27;20035;-73
2021/05/03 00:53:59;;;;;;;6.68;4.28;;;5.00;93.90;;;;;;5135367;27;20031;-72
2021/05/03 00:56:25;;;;;;;7.53;4.78;;;4.90;93.90;;;;;;5134955;27;20046;-72
2021/05/03 00:58:51;;;;;;;9.50;4.43;;;4.90;94.00;;;;;;5135656;27;20392;-72
2021/05/03 01:01:17;;;;;;;11.82;4.43;;;4.90;94.10;;;;;;5135252;27;20035;-73
2021/05/03 01:03:43;;;;;;;5.35;4.05;;;4.80;94.00;;;;;;5134467;27;20035;-72
2021/05/03 01:06:09;;;;;;;6.55;3.95;;;4.80;94.10;;;;;;5134662;27;20035;-73
2021/05/03 01:08:34;;;;;;;9.85;3.95;;;4.80;94.10;;;;;;5134844;27;20039;-72
2021/05/03 01:11:00;;;;;;;7.22;4.47;;;4.90;94.10;;;;;;5135205;27;20046;-73
2021/05/03 01:13:26;;;;;;;6.72;4.22;;;4.80;94.00;;;;;;5135147;27;20448;-72
2021/05/03 01:15:52;;;;;;;7.03;4.53;;;4.80;94.10;;;;;;5134480;27;20044;-73
2021/05/03 01:18:24;;;;;;;5.78;4.13;;;4.80;94.30;;;;;;5135413;27;20037;-73
2021/05/03 01:20:55;;;;;;;7.22;4.95;;;4.90;94.20;;;;;;5134945;27;20536;-73
2021/05/03 01:23:21;;;;;;;7.85;4.72;;;4.90;94.30;;;;;;5134975;27;20114;-72
2021/05/03 01:25:47;;;;;;;8.40;4.75;;;4.90;94.50;;;;;;5134606;27;20067;-72
2021/05/03 01:28:19;;;;;;;6.80;4.63;;;4.90;94.50;;;;;;5134592;27;20043;-72
2021/05/03 01:30:46;;;;;;;8.27;4.60;;;5.00;94.60;;;;;;5135340;27;20070;-73
2021/05/03 01:33:15;;;;;;;6.78;5.15;;;5.00;94.50;;;;;;5134630;27;20046;-73
2021/05/03 01:35:43;;;;;;;7.57;4.68;;;5.10;94.70;;;;;;5134366;27;20077;-73
2021/05/03 01:38:10;;;;;;;11.30;5.60;;;5.10;94.50;;;;;;5134353;27;20119;-72
2021/05/03 01:40:38;;;;;;;6.95;4.63;;;5.20;94.50;;;;;;5134341;27;20031;-73
2021/05/03 01:43:10;;;;;;;6.97;4.88;;;5.20;94.30;;;;;;5135113;27;20060;-73
2021/05/03 01:45:37;;;;;;;7.75;4.78;;;5.20;94.20;;;;;;5134180;27;20096;-73
2021/05/03 01:48:03;;;;;;;7.93;4.93;;;5.30;94.40;;;;;;5134594;27;20035;-72
2021/05/03 01:50:29;;;;;;;7.35;4.40;;;5.30;94.10;;;;;;5134269;27;20114;-72
2021/05/03 01:52:55;;;;;;;5.72;3.85;;;5.30;94.20;;;;;;5134671;27;20122;-73
2021/05/03 01:55:21;;;;;;;7.03;4.30;;;5.30;94.10;;;;;;5134245;27;20645;-73
2021/05/03 01:57:47;;;;;;;7.63;4.78;;;5.30;94.00;;;;;;5134138;27;20046;-73
2021/05/03 02:00:13;;;;;;;8.48;5.20;;;5.30;94.00;;;;;;5134743;27;20039;-73
2021/05/03 02:02:39;;;;;;;8.95;4.93;;;5.30;93.90;;;;;;5134192;27;20039;-72
2021/05/03 02:05:06;;;;;;;6.47;4.22;;;5.40;93.80;;;;;;5133917;27;20443;-73
2021/05/03 02:07:32;;;;;;;9.18;5.00;;;5.40;93.90;;;;;;5133945;27;20085;-73
2021/05/03 02:09:58;;;;;;;8.30;4.93;;;5.40;94.00;;;;;;5134746;27;20062;-73
2021/05/03 02:12:23;;;;;;;7.78;5.32;;;5.40;94.10;;;;;;5135547;27;20043;-73
2021/05/03 02:14:49;;;;;;;7.75;4.40;;;5.30;94.30;;;;;;5138314;27;20038;-73
2021/05/03 02:17:15;;;;;;;6.30;4.57;;;5.40;94.60;;;;;;5138044;27;20133;-73
2021/05/03 02:19:40;;;;;;;8.80;4.80;;;5.40;94.60;;;;;;5138505;27;20088;-73
2021/05/03 02:22:06;;;;;;;5.47;4.22;;;5.40;94.40;;;;;;5138611;27;20122;-73
2021/05/03 02:24:33;;;;;;;5.65;4.63;;;5.40;94.50;;;;;;5138324;27;20035;-73
2021/05/03 02:26:59;;;;;;;7.50;4.57;;;5.40;94.40;;;;;;5138393;27;20043;-73
2021/05/03 02:29:24;;;;;;;5.50;4.22;;;5.40;94.40;;;;;;5138085;27;20493;-73
2021/05/03 02:31:50;;;;;;;5.90;4.20;;;5.40;94.50;;;;;;5138556;27;20035;-73
2021/05/03 02:34:16;;;;;;;7.75;5.00;;;5.40;94.50;;;;;;5138265;27;20067;-73
2021/05/03 02:36:42;;;;;;;7.88;5.70;;;5.30;94.60;;;;;;5137647;27;20046;-73
2021/05/03 02:39:08;;;;;;;6.05;4.78;;;5.40;94.60;;;;;;5138397;27;20046;-73
2021/05/03 02:41:34;;;;;;;8.20;4.65;;;5.40;94.90;;;;;;5138387;27;20118;-73
2021/05/03 02:44:00;;;;;;;6.78;4.50;;;5.40;94.80;;;;;;5137814;27;20149;-73
2021/05/03 02:46:27;;;;;;;7.28;5.25;;;5.40;94.90;;;;;;5137433;27;20554;-73
2021/05/03 02:48:54;;;;;;;7.47;4.50;;;5.40;94.90;;;;;;5137906;27;20536;-73
2021/05/03 02:51:19;;;;;;;6.97;4.65;;;5.50;95.00;;;;;;5138040;27;20100;-72
2021/05/03 02:53:45;;;;;;;6.32;4.60;;;5.40;94.90;;;;;;5138125;27;20067;-73
2021/05/03 02:56:11;;;;;;;6.05;4.40;;;5.50;95.00;;;;;;5137048;27;20088;-73
2021/05/03 02:58:36;;;;;;;8.00;4.95;;;5.50;95.10;;;;;;5137573;27;20047;-73
2021/05/03 03:01:02;;;;;;;8.55;4.53;;;5.50;95.10;;;;;;5137705;27;20063;-73
2021/05/03 03:03:28;;;;;;;10.27;5.20;;;5.50;95.10;;;;;;5137693;27;20038;-73
2021/05/03 03:05:54;;;;;;;7.28;4.13;;;5.50;95.60;;;;;;5137449;27;20039;-73
2021/05/03 03:08:19;;;;;;;5.45;3.92;;;5.60;95.40;;;;;;5136251;27;20092;-73
2021/05/03 03:10:45;;;;;;;8.82;3.90;;;5.50;95.40;;;;;;5137851;27;20088;-73
2021/05/03 03:13:10;;;;;;;6.65;4.07;;;5.60;95.50;;;;;;5137722;27;20039;-73
2021/05/03 03:15:36;;;;;;;7.57;4.82;;;5.60;95.50;;;;;;5136990;27;20032;-73
2021/05/03 03:18:03;;;;;;;6.47;4.57;;;5.60;95.70;;;;;;5136960;27;20035;-73
2021/05/03 03:20:29;;;;;;;7.85;4.60;;;5.60;95.60;;;;;;5137501;27;20042;-73
2021/05/03 03:22:55;;;;;;;7.30;5.10;;;5.60;95.70;;;;;;5136837;27;20083;-72
2021/05/03 03:25:22;;;;;;;6.90;4.55;;;5.70;96.10;;;;;;5136979;27;20042;-73
2021/05/03 03:27:47;;;;;;;9.25;5.57;;;5.70;96.10;;;;;;5137389;27;20565;-73
2021/05/03 03:30:15;;;;;;;6.57;4.18;;;5.70;96.30;;;;;;5137083;27;20039;-73
2021/05/03 03:32:43;;;;;;;8.05;5.28;;;5.80;96.30;;;;;;5137166;27;20031;-73
2021/05/03 03:35:17;;;;;;;6.63;4.88;;;5.80;96.20;;;;;;5136661;27;20054;-73
2021/05/03 03:37:44;;;;;;;6.43;4.82;;;5.80;96.40;;;;;;5136555;27;20035;-73
2021/05/03 03:40:12;;;;;;;8.65;5.40;;;5.80;96.30;;;;;;5136846;27;20043;-73
2021/05/03 03:42:38;;;;;;;9.48;5.43;;;5.80;96.30;;;;;;5136589;27;20035;-73
2021/05/03 03:45:05;;;;;;;7.32;5.50;;;5.80;96.40;;;;;;5136642;27;20471;-73
2021/05/03 03:47:31;;;;;;;7.68;5.80;;;5.80;96.50;;;;;;5136414;27;20042;-73
2021/05/03 03:49:57;;;;;;;8.68;6.30;;;5.80;96.60;;;;;;5137146;27;20035;-73
2021/05/03 03:52:24;;;;;;;7.93;5.90;;;5.80;96.70;;;;;;5136931;27;20106;-73
2021/05/03 03:54:50;;;;;;;7.43;6.00;;;5.80;96.90;;;;;;5136503;27;20042;-73
2021/05/03 03:57:16;;;;;;;9.05;5.78;;;5.80;97.10;;;;;;5136749;27;20047;-73
2021/05/03 03:59:44;;;;;;;11.18;6.38;;;5.90;97.10;;;;;;5136546;27;20074;-73
2021/05/03 04:02:09;;;;;;;10.20;6.72;;;5.80;97.20;;;;;;5136222;27;20042;-73
2021/05/03 04:04:39;;;;;;;9.50;5.95;;;5.80;97.10;;;;;;5136128;27;20390;-73
2021/05/03 04:07:14;;;;;;;10.98;6.03;;;5.90;97.50;;;;;;5135072;27;20078;-73
2021/05/03 04:25:15;;;;;;;6.32;5.13;;;6.10;97.00;;;;;;5135607;27;20031;-73
2021/05/03 04:27:41;;;;;;;6.65;4.90;;;6.10;97.00;;;;;;5135601;27;20031;-73
2021/05/03 04:30:10;;;;;;;7.47;4.50;;;6.10;97.00;;;;;;5135668;27;20035;-73
2021/05/03 04:32:37;;;;;;;7.88;5.28;;;6.10;96.90;;;;;;5135798;27;20069;-73
2021/05/03 04:35:04;;;;;;;7.97;5.18;;;6.20;96.90;;;;;;5135028;27;20046;-73
2021/05/03 04:37:30;;;;;;;8.38;5.75;;;6.20;96.80;;;;;;5135350;27;20046;-73
2021/05/03 04:39:56;;;;;;;9.00;5.53;;;6.20;96.60;;;;;;5136035;27;20031;-73
2021/05/03 04:42:23;;;;;;;10.23;5.18;;;6.20;96.70;;;;;;5135409;27;20118;-73
2021/05/03 04:44:48;;;;;;;9.60;5.55;;;6.20;96.90;;;;;;5135257;27;20118;-73
2021/05/03 04:47:14;;;;;;;8.20;5.50;;;6.10;97.00;;;;;;5135481;27;20421;-70
2021/05/03 04:49:40;;;;;;;6.82;4.82;;;6.10;97.10;;;;;;5135520;27;20455;-72
2021/05/03 04:52:06;;;;;;;9.30;5.47;;;6.20;97.00;;;;;;5135472;27;20043;-72
2021/05/03 04:54:32;;;;;;;10.00;6.43;;;6.20;97.10;;;;;;5134915;27;20039;-73
2021/05/03 04:56:58;;;;;;;7.95;6.00;;;6.20;97.00;;;;;;5135180;27;20475;-73
2021/05/03 04:59:23;;;;;;;10.75;6.03;;;6.20;97.00;;;;;;5135219;27;20036;-72
2021/05/03 05:01:49;;;;;;;9.27;5.93;;;6.20;97.00;;;;;;5135259;27;20058;-73
2021/05/03 05:04:15;;;;;;;8.63;6.43;;;6.20;97.00;;;;;;5134792;27;20039;-73
2021/05/03 05:06:40;;;;;;;8.55;6.63;;;6.20;97.00;;;;;;5134686;27;20483;-72
2021/05/03 05:09:08;;;;;;;7.55;5.57;;;6.20;97.00;;;;;;5134802;27;20440;-72
2021/05/03 05:11:34;;;;;;;8.80;6.60;;;6.20;97.00;;;;;;5134785;27;20058;-72
2021/05/03 05:14:00;;;;;;;9.32;6.30;;;6.20;97.00;;;;;;5134862;27;20122;-73
2021/05/03 05:16:26;;;;;;;11.43;6.93;;;6.20;97.20;;;;;;5133425;27;20481;-72
2021/05/03 05:18:52;;;;;;;9.45;6.68;;;6.10;97.00;;;;;;5134904;27;20043;-73
2021/05/03 05:21:18;;;;;;;9.00;6.63;;;6.10;97.00;;;;;;5135110;27;20167;-73
2021/05/03 05:23:44;;;;;;;10.85;7.25;;;6.20;97.00;;;;;;5134697;27;20114;-73
2021/05/03 05:26:10;;;;;;;10.75;7.70;;;6.20;97.00;;;;;;5134442;27;20047;-73
2021/05/03 05:28:36;;;;;;;10.80;7.35;;;6.20;97.10;;;;;;5134814;27;20039;-73
2021/05/03 05:31:03;;;;;;;14.38;8.35;;;6.10;97.40;;;;;;5134551;27;20078;-73
2021/05/03 05:33:28;;;;;;;11.70;9.02;;;6.10;97.30;;;;;;5134726;27;20036;-71
2021/05/03 05:35:54;;;;;;;13.00;8.05;;;6.00;97.40;;;;;;5134628;27;20042;-72
2021/05/03 05:38:20;;;;;;;13.55;9.07;;;6.00;97.40;;;;;;5134819;27;20062;-72
2021/05/03 05:40:46;;;;;;;13.02;9.32;;;6.00;97.40;;;;;;5134625;27;20118;-73
2021/05/03 05:43:13;;;;;;;16.05;8.23;;;6.00;97.40;;;;;;5134330;27;20091;-73
2021/05/03 05:45:39;;;;;;;9.43;7.18;;;6.00;97.50;;;;;;5134489;27;20470;-73
2021/05/03 05:48:06;;;;;;;12.10;9.00;;;6.00;97.30;;;;;;5134571;27;20114;-73
2021/05/03 05:50:33;;;;;;;16.52;9.48;;;5.70;97.50;;;;;;5134812;27;20039;-73
2021/05/03 05:52:58;;;;;;;15.20;10.25;;;5.80;97.80;;;;;;5134493;27;20038;-73
2021/05/03 05:55:24;;;;;;;13.90;9.20;;;5.70;97.70;;;;;;5134760;27;20125;-73
2021/05/03 05:57:50;;;;;;;11.38;8.43;;;5.60;97.60;;;;;;5134566;27;20425;-73
2021/05/03 06:00:16;;;;;;;13.27;6.80;;;5.50;97.40;;;;;;5134627;27;20202;-73
2021/05/03 06:02:42;;;;;;;9.82;6.93;;;5.50;97.50;;;;;;5134694;27;20084;-73
2021/05/03 06:05:08;;;;;;;8.10;6.80;;;5.40;97.30;;;;;;5134121;27;20035;-73
2021/05/03 06:07:34;;;;;;;10.05;6.00;;;5.40;97.30;;;;;;5134584;27;20039;-73
2021/05/03 06:10:00;;;;;;;7.20;5.00;;;5.50;97.60;;;;;;5134263;27;20035;-73
2021/05/03 06:12:26;;;;;;;7.10;4.97;;;5.50;97.50;;;;;;5134305;27;20375;-73
2021/05/03 06:14:52;;;;;;;6.65;4.93;;;5.50;97.60;;;;;;5133002;28;20043;-73
2021/05/03 06:17:19;;;;;;;5.07;4.03;;;5.50;97.60;;;;;;5133971;27;20423;-73
2021/05/03 06:19:45;;;;;;;8.07;4.07;;;5.60;97.60;;;;;;5133987;27;20035;-73
2021/05/03 06:22:11;;;;;;;8.15;4.25;;;5.60;97.50;;;;;;5134757;27;20072;-73
2021/05/03 06:24:36;;;;;;;5.32;4.05;;;5.60;97.50;;;;;;5133145;28;20114;-73
2021/05/03 06:27:02;;;;;;;5.10;3.55;;;5.60;97.30;;;;;;5134056;27;20043;-73
2021/05/03 06:29:28;;;;;;;5.07;3.25;;;5.70;97.20;;;;;;5134021;27;20440;-73
2021/05/03 06:31:54;;;;;;;5.20;3.55;;;5.80;97.20;;;;;;5134388;27;20039;-73
2021/05/03 06:34:20;;;;;;;4.90;3.45;;;5.80;97.20;;;;;;5133304;28;20378;-73
2021/05/03 06:36:46;;;;;;;6.05;3.65;;;5.90;97.30;;;;;;5133657;27;20479;-73
2021/05/03 06:39:12;;;;;;;5.35;3.78;;;6.00;97.30;;;;;;5133930;27;20042;-73
2021/05/03 06:41:38;;;;;;;5.22;3.30;;;6.00;97.50;;;;;;5134041;27;20044;-73
2021/05/03 06:44:04;;;;;;;4.97;3.60;;;6.10;97.40;;;;;;5134167;27;20035;-73
2021/05/03 06:46:29;;;;;;;6.53;3.75;;;6.10;97.30;;;;;;5133995;27;20580;-73
2021/05/03 06:48:55;;;;;;;4.50;3.10;;;6.10;97.20;;;;;;5133846;27;20042;-73
2021/05/03 06:51:21;;;;;;;5.25;4.35;;;6.20;97.20;;;;;;5133791;27;20591;-73
2021/05/03 06:53:46;;;;;;;4.80;3.72;;;6.20;97.10;;;;;;5133822;27;20032;-73
2021/05/03 06:56:12;;;;;;;5.25;3.63;;;6.20;97.10;;;;;;5133523;27;20525;-73
2021/05/03 06:58:38;;;;;;;7.55;3.95;;;6.20;97.00;;;;;;5135745;27;20039;-73
2021/05/03 07:01:06;;;;;;;5.80;4.00;;;6.20;97.00;;;;;;5137970;27;20455;-73
2021/05/03 07:03:31;;;;;;;4.35;3.70;;;6.20;96.90;;;;;;5138062;27;20039;-73
2021/05/03 07:05:57;;;;;;;6.13;4.40;;;6.20;96.90;;;;;;5137096;27;20114;-73
2021/05/03 07:08:25;;;;;;;7.72;4.93;;;6.20;96.80;;;;;;5137628;27;20467;-73
2021/05/03 07:10:53;;;;;;;8.70;5.53;;;6.20;96.80;;;;;;5137300;27;20479;-73
2021/05/03 07:13:19;;;;;;;6.50;4.50;;;6.20;97.00;;;;;;5137368;27;20079;-73
2021/05/03 07:15:45;;;;;;;6.35;4.70;;;6.20;96.90;;;;;;5137103;27;20042;-73
2021/05/03 07:18:11;;;;;;;6.80;4.90;;;6.20;96.90;;;;;;5136987;27;20039;-73
2021/05/03 07:20:37;;;;;;;6.63;5.47;;;6.30;96.80;;;;;;5137285;27;20039;-73
2021/05/03 07:23:05;;;;;;;7.63;5.70;;;6.30;96.80;;;;;;5135967;27;20162;-72
2021/05/03 07:25:30;;;;;;;7.35;6.15;;;6.30;96.80;;;;;;5136916;27;20043;-73
2021/05/03 07:27:56;;;;;;;9.32;6.65;;;6.40;96.90;;;;;;5137118;27;20041;-73
2021/05/03 07:30:22;;;;;;;12.70;8.75;;;6.60;97.10;;;;;;5137348;27;20048;-72
2021/05/03 07:32:48;;;;;;;11.73;9.40;;;6.70;97.10;;;;;;5136719;27;20035;-73
2021/05/03 07:35:14;;;;;;;11.65;9.65;;;6.80;97.20;;;;;;5137013;27;20118;-73
2021/05/03 07:37:40;;;;;;;13.63;9.85;;;6.90;97.00;;;;;;5136817;27;20399;-73
2021/05/03 07:40:07;;;;;;;12.18;10.10;;;7.00;96.70;;;;;;5136827;27;20039;-73
2021/05/03 07:42:33;;;;;;;13.20;10.65;;;7.10;96.60;;;;;;5137287;27;20035;-73
2021/05/03 07:44:59;;;;;;;14.18;11.95;;;7.10;96.50;;;;;;5136623;27;20066;-73
2021/05/03 07:51:20;;;;;;;19.45;13.80;;;7.10;96.40;;;;;;5093847;28;20074;-73
2021/05/03 07:53:46;;;;;;;20.77;14.93;;;7.20;96.50;;;;;;5115548;27;20051;-73
2021/05/03 07:56:15;;;;;;;23.95;16.42;;;7.20;96.50;;;;;;5136066;27;20035;-73
2021/05/03 07:58:45;;;;;;;20.98;16.40;;;7.20;96.70;;;;;;5136162;27;20035;-73
2021/05/03 08:01:10;;;;;;;21.63;16.60;;;7.30;96.70;;;;;;5136945;27;20045;-73
2021/05/03 08:03:38;;;;;;;30.63;20.00;;;7.30;96.70;;;;;;5136638;27;20039;-73
2021/05/03 08:06:08;;;;;;;22.80;17.60;;;7.40;96.80;;;;;;5135748;27;20039;-73
2021/05/03 08:08:33;;;;;;;28.27;19.38;;;7.50;96.70;;;;;;5136308;27;20068;-73
2021/05/03 08:11:00;;;;;;;30.83;23.02;;;7.60;96.70;;;;;;5135540;27;20049;-73
2021/05/03 08:13:28;;;;;;;29.50;21.17;;;7.70;96.70;;;;;;5135171;27;20041;-73
2021/05/03 08:15:55;;;;;;;37.55;24.83;;;7.70;96.70;;;;;;5135668;27;20177;-73
2021/05/03 08:18:21;;;;;;;37.60;25.55;;;7.70;96.40;;;;;;5135962;27;20123;-73
2021/05/03 08:20:47;;;;;;;41.63;26.30;;;7.80;96.30;;;;;;5136466;27;20106;-73
2021/05/03 08:23:18;;;;;;;39.15;27.10;;;7.80;96.60;;;;;;5136197;27;20036;-73
2021/05/03 08:25:47;;;;;;;34.38;25.25;;;7.90;96.60;;;;;;5135851;27;20059;-73
2021/05/03 08:28:12;;;;;;;39.30;26.23;;;8.00;96.50;;;;;;5135651;27;20035;-73
2021/05/03 08:30:38;;;;;;;42.97;29.95;;;8.20;96.70;;;;;;5135998;27;20041;-73
2021/05/03 08:33:04;;;;;;;42.92;29.48;;;8.30;96.70;;;;;;5135116;27;20031;-73
2021/05/03 08:35:30;;;;;;;46.85;30.48;;;8.50;96.50;;;;;;5135233;27;20046;-73
2021/05/03 08:37:56;;;;;;;43.65;29.35;;;8.70;96.20;;;;;;5135354;27;20039;-73
2021/05/03 08:40:21;;;;;;;44.65;29.35;;;8.90;95.90;;;;;;5135594;27;20425;-73
2021/05/03 08:42:47;;;;;;;46.92;32.83;;;9.10;95.90;;;;;;5135707;27;20451;-73
2021/05/03 08:45:14;;;;;;;52.15;36.35;;;9.20;95.90;;;;;;5135251;27;20483;-73
2021/05/03 08:47:52;;;;;;;44.47;31.98;;;9.50;95.80;;;;;;5135782;27;20049;-73
2021/05/03 08:50:27;;;;;;;55.20;37.28;;;9.70;95.40;;;;;;5134916;27;20467;-73
2021/05/03 08:52:56;;;;;;;54.67;37.10;;;9.90;95.60;;;;;;5135526;27;20110;-73
2021/05/03 08:55:22;;;;;;;55.65;39.50;;;10.40;95.40;;;;;;5134908;27;20046;-73
2021/05/03 08:57:48;;;;;;;54.85;35.67;;;11.00;95.70;;;;;;5133840;27;20031;-73
2021/05/03 09:00:15;;;;;;;46.00;33.85;;;11.40;95.00;;;;;;5135608;27;20080;-73
2021/05/03 09:02:46;;;;;;;40.67;28.55;;;11.60;94.20;;;;;;5135725;27;20035;-73
2021/05/03 09:05:12;;;;;;;38.75;28.23;;;11.70;93.20;;;;;;5133515;27;20793;-73
2021/05/03 09:07:50;;;;;;;39.10;27.02;;;11.50;93.80;;;;;;5135167;27;20087;-73
2021/05/03 09:10:18;;;;;;;31.25;24.23;;;11.60;93.60;;;;;;5135169;27;20046;-73
2021/05/03 09:12:44;;;;;;;27.75;21.15;;;11.40;93.50;;;;;;5134867;27;20144;-73
2021/05/03 09:15:11;;;;;;;33.42;22.25;;;11.10;93.40;;;;;;5134572;27;20477;-73
2021/05/03 09:17:42;;;;;;;29.75;22.00;;;10.60;93.80;;;;;;5134670;27;20364;-73
2021/05/03 09:20:13;;;;;;;30.30;21.08;;;10.30;94.30;;;;;;5134956;27;20042;-73
2021/05/03 09:22:47;;;;;;;28.98;21.05;;;9.80;94.50;;;;;;5135009;27;20035;-73
2021/05/03 09:25:38;;;;;;;15.23;11.27;;;9.50;95.10;;;;;;5134391;27;20176;-73
2021/05/03 09:28:11;;;;;;;11.57;7.90;;;9.30;95.10;;;;;;5135116;27;20042;-73
2021/05/03 09:30:44;;;;;;;9.20;7.63;;;9.10;95.40;;;;;;5133575;27;20035;-73
2021/05/03 09:33:12;;;;;;;13.80;7.35;;;8.90;95.80;;;;;;5134545;27;20035;-73
2021/05/03 09:35:44;;;;;;;8.65;5.18;;;8.80;95.90;;;;;;5134403;27;20485;-73
2021/05/03 09:38:33;;;;;;;6.82;5.38;;;8.70;95.70;;;;;;5134845;27;20035;-73
2021/05/03 09:41:12;;;;;;;7.50;5.53;;;8.70;96.20;;;;;;5133286;27;20031;-73
2021/05/03 09:43:39;;;;;;;6.75;4.72;;;8.70;96.90;;;;;;5134467;27;20035;-73
2021/05/03 09:46:28;;;;;;;7.30;5.22;;;8.70;96.50;;;;;;5134035;27;20043;-73
2021/05/03 09:48:56;;;;;;;8.93;6.32;;;8.80;96.40;;;;;;5134449;27;20451;-73
2021/05/03 09:51:32;;;;;;;12.23;8.68;;;8.90;96.60;;;;;;5134532;27;20050;-73
2021/05/03 09:54:22;;;;;;;16.45;11.75;;;9.20;97.00;;;;;;5134323;27;20084;-73
2021/05/03 09:56:51;;;;;;;18.23;13.90;;;9.50;96.50;;;;;;5128387;27;20055;-73
2021/05/03 09:59:40;;;;;;;17.65;13.85;;;9.60;96.80;;;;;;5134265;27;20071;-73
2021/05/03 10:02:25;;;;;;;20.83;14.50;;;9.70;96.30;;;;;;5116319;28;20058;-74
2021/05/03 10:05:13;;;;;;;17.90;15.20;;;9.70;96.30;;;;;;5133669;28;20039;-73
2021/05/03 10:07:40;;;;;;;20.17;14.75;;;9.60;96.00;;;;;;5132829;28;20035;-73
2021/05/03 10:10:23;;;;;;;21.20;16.55;;;9.60;95.80;;;;;;5134316;27;20160;-73
2021/05/03 10:12:50;;;;;;;27.67;17.83;;;9.50;96.00;;;;;;5134416;27;20115;-73
2021/05/03 10:15:18;;;;;;;25.85;17.13;;;9.50;96.30;;;;;;5134152;27;20489;-73
2021/05/03 10:17:45;;;;;;;25.20;18.00;;;9.40;96.00;;;;;;5132673;28;20077;-74
2021/05/03 10:20:16;;;;;;;32.92;23.08;;;9.40;96.30;;;;;;5134710;27;20046;-74
2021/05/03 10:22:43;;;;;;;28.38;21.52;;;9.40;96.20;;;;;;5134420;27;20498;-74
2021/05/03 10:25:16;;;;;;;32.10;23.00;;;9.50;96.30;;;;;;5133861;27;20114;-73
2021/05/03 10:27:46;;;;;;;34.45;23.38;;;9.60;96.10;;;;;;5134734;27;20045;-74
2021/05/03 10:30:23;;;;;;;35.92;23.50;;;9.70;96.20;;;;;;5134550;27;20122;-74
2021/05/03 10:33:04;;;;;;;33.03;24.77;;;9.70;96.10;;;;;;5134401;27;20036;-74
2021/05/03 10:35:36;;;;;;;36.10;26.08;;;9.70;96.00;;;;;;5137968;27;20039;-74
2021/05/03 10:38:03;;;;;;;37.63;27.80;;;9.70;96.00;;;;;;5138471;27;20070;-74
2021/05/03 10:40:35;;;;;;;44.58;29.92;;;10.00;96.10;;;;;;5138076;27;20114;-74
2021/05/03 10:43:09;;;;;;;47.10;33.15;;;10.40;96.20;;;;;;5138535;27;20119;-73
2021/05/03 10:48:33;;;;;;;57.90;39.90;;;11.00;95.80;;;;;;5138499;27;20039;-74
2021/05/03 10:51:01;;;;;;;62.35;40.83;;;11.30;95.60;;;;;;5138277;27;20080;-74
2021/05/03 10:53:38;;;;;;;60.53;41.88;;;11.40;95.90;;;;;;5137537;27;20106;-74
2021/05/03 10:56:07;;;;;;;54.58;39.72;;;11.60;95.80;;;;;;5137401;27;20043;-75
2021/05/03 10:58:53;;;;;;;55.08;36.80;;;11.90;95.10;;;;;;5137299;27;20074;-75
2021/05/03 11:01:19;;;;;;;50.20;37.20;;;12.20;94.50;;;;;;5130685;27;20058;-75
2021/05/03 11:03:54;;;;;;;52.22;39.97;;;12.10;93.90;;;;;;5138177;27;20038;-74
2021/05/03 11:06:38;;;;;;;50.88;36.83;;;12.10;94.10;;;;;;5136519;27;20086;-74
2021/05/03 11:09:27;;;;;;;49.22;36.05;;;11.90;93.70;;;;;;5136066;27;20479;-74
2021/05/03 11:11:57;;;;;;;54.20;38.47;;;11.70;93.50;;;;;;5136570;27;20043;-74
2021/05/03 11:14:24;;;;;;;55.05;39.70;;;11.50;94.30;;;;;;5136658;27;20039;-74
2021/05/03 11:16:55;;;;;;;51.10;38.78;;;11.50;94.60;;;;;;5136204;27;20065;-74
2021/05/03 11:22:14;;;;;;;44.88;32.72;;;11.30;94.70;;;;;;5137453;27;20042;-74
2021/05/03 11:24:47;;;;;;;51.78;37.92;;;11.20;95.20;;;;;;5136300;27;20064;-74
2021/05/03 11:27:28;;;;;;;55.50;38.03;;;11.00;95.20;;;;;;5137190;27;20042;-74
2021/05/03 11:32:38;;;;;;;23.35;17.63;;;10.70;94.20;;;;;;5137660;27;20042;-74
2021/05/03 11:35:25;;;;;;;17.42;10.65;;;10.50;93.40;;;;;;5136651;27;20042;-74
2021/05/03 11:45:41;;;;;;;20.10;16.08;;;9.90;94.10;;;;;;5136414;27;20043;-72
2021/05/03 11:48:07;;;;;;;22.00;17.75;;;10.30;94.50;;;;;;5136451;27;20048;-72
2021/05/03 11:50:33;;;;;;;23.60;18.08;;;10.70;94.00;;;;;;5136938;27;20387;-72
2021/05/03 11:52:59;;;;;;;26.30;20.00;;;11.00;94.20;;;;;;5136824;27;20031;-72
2021/05/03 11:55:26;;;;;;;30.50;21.35;;;11.30;94.50;;;;;;5135428;27;20034;-73
2021/05/03 11:57:52;;;;;;;29.40;23.52;;;11.40;93.80;;;;;;5136282;27;20070;-72
2021/05/03 12:00:21;;;;;;;31.27;22.25;;;11.60;94.20;;;;;;5136393;27;20087;-72
2021/05/03 12:02:47;;;;;;;30.23;21.98;;;11.50;93.60;;;;;;5136238;27;20031;-72
2021/05/03 12:05:18;;;;;;;31.50;20.88;;;11.50;93.00;;;;;;5135912;27;20035;-73
2021/05/03 12:07:45;;;;;;;28.80;20.17;;;11.50;92.90;;;;;;5136545;27;20039;-73
2021/05/03 12:10:21;;;;;;;26.13;20.00;;;11.50;92.60;;;;;;5136185;27;20063;-72
2021/05/03 12:12:52;;;;;;;25.13;18.33;;;11.60;92.30;;;;;;5136438;27;20156;-72
2021/05/03 12:15:28;;;;;;;18.58;13.65;;;11.50;92.20;;;;;;5135030;27;20053;-73
2021/05/03 12:17:57;;;;;;;19.85;14.60;;;11.30;90.00;;;;;;5136076;27;20548;-72
2021/05/03 12:20:25;;;;;;;21.95;15.15;;;11.00;90.60;;;;;;5135593;27;20078;-72
2021/05/03 12:22:58;;;;;;;14.57;11.63;;;10.70;91.50;;;;;;5135962;27;20466;-72
2021/05/03 12:25:30;;;;;;;;;;;10.40;91.70;;;;;;5136307;27;20463;-72
2021/05/03 12:27:56;;;;;;;20.35;13.68;;;10.30;94.00;;;;;;5135685;27;19915;-72
2021/05/03 12:30:24;;;;;;;19.80;15.10;;;10.50;93.60;;;;;;5135684;27;20516;-72
2021/05/03 12:32:50;;;;;;;23.88;18.95;;;10.80;94.00;;;;;;5136264;27;20035;-72
2021/05/03 12:35:20;;;;;;;24.92;19.60;;;11.10;94.80;;;;;;5135187;27;20380;-73
2021/05/03 12:37:46;;;;;;;23.35;19.73;;;11.40;94.70;;;;;;5134805;27;20042;-73
2021/05/03 12:40:17;;;;;;;21.00;16.88;;;11.60;94.70;;;;;;5135952;27;20084;-73
2021/05/03 12:42:51;;;;;;;17.88;15.52;;;11.80;94.40;;;;;;5136161;27;20035;-73
2021/05/03 12:51:08;;;;;;;19.58;15.20;;;12.00;92.90;;;;;;5134800;27;20055;-71
2021/05/03 12:53:55;;;;;;;18.55;13.30;;;11.80;92.10;;;;;;5117194;27;20088;-71
2021/05/03 12:58:57;;;;;;;18.42;14.88;;;11.70;91.80;;;;;;5135195;27;20117;-72
2021/05/03 13:06:55;;;;;;;15.02;11.48;;;11.70;91.40;;;;;;5135364;27;20486;-72
2021/05/03 13:12:19;;;;;;;13.65;12.25;;;11.90;92.00;;;;;;5135514;27;20039;-72
2021/05/03 13:29:08;;;;;;;15.43;11.32;;;12.50;91.90;;;;;;5134832;27;20119;-72
2021/05/03 13:31:37;;;;;;;13.38;11.35;;;12.40;90.20;;;;;;5134801;27;20031;-72
2021/05/03 13:34:05;;;;;;;13.23;10.45;;;12.30;90.70;;;;;;5134572;27;20039;-72
2021/05/03 13:36:32;;;;;;;13.88;11.07;;;12.30;90.50;;;;;;5134160;27;20035;-72
2021/05/03 13:38:58;;;;;;;11.60;10.02;;;12.30;90.80;;;;;;5133343;27;20043;-71
2021/05/03 13:41:25;;;;;;;10.68;9.27;;;12.30;90.80;;;;;;5134546;27;20487;-72
2021/05/03 13:43:51;;;;;;;10.93;9.70;;;12.40;90.30;;;;;;5134501;27;20109;-72
2021/05/03 13:46:17;;;;;;;13.38;9.52;;;12.50;90.00;;;;;;5134267;27;20085;-73
2021/05/03 13:48:43;;;;;;;9.45;8.02;;;12.50;90.50;;;;;;5134308;27;20031;-72
2021/05/03 13:51:09;;;;;;;9.13;8.23;;;12.40;90.20;;;;;;5134636;27;20043;-72
2021/05/03 13:53:36;;;;;;;7.80;6.97;;;12.40;89.60;;;;;;5134599;27;20348;-72
2021/05/03 13:56:03;;;;;;;8.93;7.35;;;12.30;89.10;;;;;;5133205;27;20038;-73